La Porte City, Iowa
Current Conditions -  °F | °C
As of 12:35 AM on Wednesday 28 Jan 2015 (Local Time) from KVTI Reporting Station
Overcast Overcast  
Wind Chill: 21°   Ceiling: 1100
Heat Index: 30°   Visibility: 7mi
Dew Point: 26°   Wind: 10mph
Humidity: 85%   Direction: 170°S
Pressure: 30.2"   Gusts: NA
Location:  42.31°N, 92.19°W
Report Text: KVTI 280635Z AUTO 17009KT 7SM OVC011 M01/M03 A3020 RMK AO2 T10101032
Loading
Personal Weather Stations






























Interactive Weather Map New forecast layout! Learn more

10-Day Weather Forecast

Advertisements
Track Severe Weather on mobile